Time;durP1;ratioP1;P1;durP2;ratioP2;P2;SDS_P1;SDS_P2;PMS_P1;PMS_P2;Temp;Humidity;BMP_temperature;BMP_pressure;BME280_temperature;BME280_humidity;BME280_pressure;Samples;Min_cycle;Max_cycle;Signal;HPM_P1;HPM_P2
2021/03/09 00:00:58;;;;;;;;;;;5.20;53.80;;;;;;5013077;28;19922;-76
2021/03/09 00:03:25;;;;;;;;;;;5.20;53.80;;;;;;5013160;28;19929;-77
2021/03/09 00:05:51;;;;;;;;;;;5.10;53.80;;;;;;5013127;28;19971;-77
2021/03/09 00:08:17;;;;;;;;;;;5.10;54.00;;;;;;5013503;28;19929;-78
2021/03/09 00:10:43;;;;;;;;;;;5.10;54.00;;;;;;5009667;28;19922;-78
2021/03/09 00:13:12;;;;;;;;;;;5.10;54.10;;;;;;5003290;28;19921;-79
2021/03/09 00:15:40;;;;;;;;;;;5.00;54.00;;;;;;5013301;28;19921;-78
2021/03/09 00:18:09;;;;;;;;;;;5.10;54.20;;;;;;5013205;28;19921;-78
2021/03/09 00:20:35;;;;;;;;;;;5.00;54.20;;;;;;5012797;28;19969;-78
2021/03/09 00:23:02;;;;;;;;;;;5.00;54.20;;;;;;5011373;28;19921;-78
2021/03/09 00:25:28;;;;;;;;;;;5.00;54.20;;;;;;5012870;28;19972;-78
2021/03/09 00:27:54;;;;;;;;;;;5.00;54.30;;;;;;5013347;28;20353;-78
2021/03/09 00:30:21;;;;;;;;;;;4.90;54.30;;;;;;5012935;28;19921;-77
2021/03/09 00:32:49;;;;;;;;;;;4.90;54.40;;;;;;5012940;28;20381;-79
2021/03/09 00:35:15;;;;;;;;;;;4.90;54.50;;;;;;5012926;28;19928;-77
2021/03/09 00:37:41;;;;;;;;;;;4.80;54.50;;;;;;5013052;28;20004;-77
2021/03/09 00:40:08;;;;;;;;;;;4.80;54.60;;;;;;5013304;28;19925;-78
2021/03/09 00:42:35;;;;;;;;;;;4.80;54.60;;;;;;5012753;28;19921;-77
2021/03/09 00:45:01;;;;;;;;;;;4.80;54.70;;;;;;5012838;28;19929;-78
2021/03/09 00:47:27;;;;;;;;;;;4.80;54.70;;;;;;5013002;28;19925;-75
2021/03/09 00:49:55;;;;;;;;;;;4.80;54.60;;;;;;5011324;28;19922;-77
2021/03/09 00:52:21;;;;;;;;;;;4.80;54.60;;;;;;5012947;28;19963;-77
2021/03/09 00:54:47;;;;;;;;;;;4.80;54.50;;;;;;5012542;28;19921;-76
2021/03/09 00:57:14;;;;;;;;;;;4.80;54.60;;;;;;5012717;28;20320;-77
2021/03/09 00:59:40;;;;;;;;;;;4.80;54.60;;;;;;5016635;28;19975;-76
2021/03/09 01:02:06;;;;;;;;;;;4.80;54.60;;;;;;5016738;28;19925;-76
2021/03/09 01:04:33;;;;;;;;;;;4.70;54.50;;;;;;5016789;28;20262;-77
2021/03/09 01:07:00;;;;;;;;;;;4.70;55.10;;;;;;5016595;28;19921;-77
2021/03/09 01:09:26;;;;;;;;;;;4.70;54.70;;;;;;5002391;28;19937;-77
2021/03/09 01:11:53;;;;;;;;;;;4.60;54.80;;;;;;5016619;28;19921;-78
2021/03/09 01:14:19;;;;;;;;;;;4.60;54.80;;;;;;5015914;28;19975;-78
2021/03/09 01:16:45;;;;;;;;;;;4.60;55.00;;;;;;5015076;28;19922;-78
2021/03/09 01:19:12;;;;;;;;;;;4.50;55.00;;;;;;5016424;28;19921;-78
2021/03/09 01:21:38;;;;;;;;;;;4.50;55.00;;;;;;5016350;28;19925;-78
2021/03/09 01:24:06;;;;;;;;;;;4.50;55.10;;;;;;5015827;28;20293;-78
2021/03/09 01:26:33;;;;;;;;;;;4.50;55.10;;;;;;5016143;28;19967;-78
2021/03/09 01:28:59;;;;;;;;;;;4.50;55.10;;;;;;5016074;28;19928;-78
2021/03/09 01:31:25;;;;;;;;;;;4.50;55.10;;;;;;5015917;28;20328;-78
2021/03/09 01:33:52;;;;;;;;;;;4.50;55.10;;;;;;5016205;28;19925;-77
2021/03/09 01:36:18;;;;;;;;;;;4.50;55.20;;;;;;5016058;28;19922;-77
2021/03/09 01:38:44;;;;;;;;;;;4.50;55.30;;;;;;5016384;28;19928;-77
2021/03/09 01:41:12;;;;;;;;;;;4.50;55.30;;;;;;5015398;28;20013;-77
2021/03/09 01:43:38;;;;;;;;;;;4.40;55.20;;;;;;5014929;28;19929;-78
2021/03/09 01:46:04;;;;;;;;;;;4.40;55.20;;;;;;5015732;28;19921;-78
2021/03/09 01:48:32;;;;;;;;;;;4.40;55.20;;;;;;5015896;28;20309;-78
2021/03/09 01:50:59;;;;;;;;;;;4.40;55.30;;;;;;5016100;28;20321;-77
2021/03/09 01:53:25;;;;;;;;;;;4.40;55.30;;;;;;5015672;28;19928;-77
2021/03/09 01:55:52;;;;;;;;;;;4.40;55.30;;;;;;5015227;28;19928;-78
2021/03/09 01:58:20;;;;;;;;;;;4.40;55.20;;;;;;5016069;28;20297;-77
2021/03/09 02:00:46;;;;;;;;;;;4.40;55.20;;;;;;5015220;28;19922;-76
2021/03/09 02:03:12;;;;;;;;;;;4.40;55.40;;;;;;5015435;28;19948;-77
2021/03/09 02:05:39;;;;;;;;;;;4.40;55.40;;;;;;5015591;28;19925;-76
2021/03/09 02:08:05;;;;;;;;;;;4.30;55.30;;;;;;5013936;28;19922;-76
2021/03/09 02:10:32;;;;;;;;;;;4.40;55.40;;;;;;5013457;28;19929;-76
2021/03/09 02:13:04;;;;;;;;;;;4.40;55.50;;;;;;5013511;28;19926;-76
2021/03/09 02:15:35;;;;;;;;;;;4.30;55.40;;;;;;5003597;28;19922;-76
2021/03/09 02:18:05;;;;;;;;;;;4.30;55.50;;;;;;5015496;28;19975;-75
2021/03/09 02:20:47;;;;;;;;;;;4.30;55.50;;;;;;5015814;28;19928;-76
2021/03/09 02:23:31;;;;;;;;;;;4.30;55.50;;;;;;5015293;28;19925;-76
2021/03/09 02:26:06;;;;;;;;;;;4.30;55.50;;;;;;5014319;28;19921;-76
2021/03/09 02:28:36;;;;;;;;;;;4.30;55.60;;;;;;5014726;28;19921;-76
2021/03/09 02:31:05;;;;;;;;;;;4.30;56.10;;;;;;5014822;28;19987;-76
2021/03/09 02:33:33;;;;;;;;;;;4.30;55.50;;;;;;5014470;28;19921;-78
2021/03/09 02:36:03;;;;;;;;;;;4.30;55.50;;;;;;5013047;28;20277;-76
2021/03/09 02:38:31;;;;;;;;;;;4.30;55.50;;;;;;5015179;28;20008;-77
2021/03/09 02:40:59;;;;;;;;;;;4.20;55.40;;;;;;5014154;28;19944;-76
2021/03/09 02:43:27;;;;;;;;;;;4.20;55.50;;;;;;5014638;28;20005;-78
2021/03/09 02:45:54;;;;;;;;;;;4.20;55.50;;;;;;5014597;28;20351;-77
2021/03/09 02:48:22;;;;;;;;;;;4.20;55.50;;;;;;5014840;28;20495;-77
2021/03/09 02:50:50;;;;;;;;;;;4.20;55.60;;;;;;5013994;28;20377;-78
2021/03/09 02:53:17;;;;;;;;;;;4.20;55.60;;;;;;5014329;28;19921;-76
2021/03/09 02:55:44;;;;;;;;;;;4.10;55.60;;;;;;5014022;28;19925;-76
2021/03/09 02:58:12;;;;;;;;;;;4.10;55.70;;;;;;5014645;28;20393;-77
2021/03/09 03:00:40;;;;;;;;;;;4.10;55.70;;;;;;5014017;28;19925;-76
2021/03/09 03:03:07;;;;;;;;;;;4.10;55.70;;;;;;5013111;28;19933;-75
2021/03/09 03:05:35;;;;;;;;;;;4.10;55.80;;;;;;5014026;28;19921;-76
2021/03/09 03:08:03;;;;;;;;;;;4.10;55.80;;;;;;5014151;28;20019;-76
2021/03/09 03:10:29;;;;;;;;;;;4.10;55.80;;;;;;5014294;28;20373;-76
2021/03/09 03:12:55;;;;;;;;;;;4.10;55.80;;;;;;5014154;28;20262;-76
2021/03/09 03:15:22;;;;;;;;;;;4.10;55.70;;;;;;5013745;28;19929;-76
2021/03/09 03:17:49;;;;;;;;;;;4.10;55.70;;;;;;5014398;28;20289;-76
2021/03/09 03:20:16;;;;;;;;;;;4.10;55.80;;;;;;5013529;28;20389;-75
2021/03/09 03:22:44;;;;;;;;;;;4.10;55.80;;;;;;5014413;28;19925;-76
2021/03/09 03:25:12;;;;;;;;;;;4.10;55.80;;;;;;5013646;28;19979;-76
2021/03/09 03:27:40;;;;;;;;;;;4.00;55.80;;;;;;5013647;28;19928;-77
2021/03/09 03:30:08;;;;;;;;;;;4.00;55.80;;;;;;5012096;28;19921;-76
2021/03/09 03:32:35;;;;;;;;;;;4.00;55.80;;;;;;5013983;28;19957;-76
2021/03/09 03:35:01;;;;;;;;;;;4.00;55.80;;;;;;5014012;28;20289;-76
2021/03/09 03:37:27;;;;;;;;;;;4.00;55.90;;;;;;5013661;28;19922;-75
2021/03/09 03:39:54;;;;;;;;;;;4.00;55.90;;;;;;5013550;28;20274;-76
2021/03/09 03:42:21;;;;;;;;;;;4.00;55.90;;;;;;5014036;28;19925;-76
2021/03/09 03:44:48;;;;;;;;;;;4.00;55.90;;;;;;5013547;28;19945;-76
2021/03/09 03:47:15;;;;;;;;;;;4.00;55.80;;;;;;5013746;28;20396;-78
2021/03/09 03:49:41;;;;;;;;;;;4.00;55.80;;;;;;5006459;28;19952;-78
2021/03/09 03:52:11;;;;;;;;;;;3.90;55.80;;;;;;5013405;28;20377;-78
2021/03/09 03:54:45;;;;;;;;;;;3.90;55.80;;;;;;5013651;28;19921;-79
2021/03/09 03:57:16;;;;;;;;;;;3.90;55.80;;;;;;5011922;28;19925;-79
2021/03/09 03:59:44;;;;;;;;;;;3.90;55.80;;;;;;5013356;28;19925;-79
2021/03/09 04:02:12;;;;;;;;;;;3.90;55.80;;;;;;5013296;28;20404;-79
2021/03/09 04:04:39;;;;;;;;;;;3.90;55.90;;;;;;5013439;28;19929;-78
2021/03/09 04:07:05;;;;;;;;;;;3.90;55.90;;;;;;5013440;28;20385;-78
2021/03/09 04:09:32;;;;;;;;;;;3.90;55.90;;;;;;5012956;28;19932;-78
2021/03/09 04:12:00;;;;;;;;;;;3.90;55.90;;;;;;5006740;28;19928;-78
2021/03/09 04:14:29;;;;;;;;;;;3.90;55.90;;;;;;5012975;28;19936;-79
2021/03/09 04:16:56;;;;;;;;;;;3.90;55.90;;;;;;5013075;28;19922;-78
2021/03/09 04:19:23;;;;;;;;;;;3.90;55.90;;;;;;5013225;28;20340;-77
2021/03/09 04:21:49;;;;;;;;;;;3.90;55.90;;;;;;5011465;28;20267;-78
2021/03/09 04:24:16;;;;;;;;;;;3.90;56.00;;;;;;5013098;28;19929;-78
2021/03/09 04:26:43;;;;;;;;;;;3.80;56.10;;;;;;5012993;28;19925;-78
2021/03/09 04:29:10;;;;;;;;;;;3.80;56.10;;;;;;5012940;28;19945;-79
2021/03/09 04:31:37;;;;;;;;;;;3.80;56.10;;;;;;5013085;28;19922;-79
2021/03/09 04:34:04;;;;;;;;;;;3.80;56.10;;;;;;5012887;28;20388;-79
2021/03/09 04:36:31;;;;;;;;;;;3.80;56.10;;;;;;5013376;28;19921;-79
2021/03/09 04:38:57;;;;;;;;;;;3.80;56.10;;;;;;5013149;28;19925;-79
2021/03/09 04:41:24;;;;;;;;;;;3.80;56.10;;;;;;5012925;28;19987;-78
2021/03/09 04:43:50;;;;;;;;;;;3.80;56.20;;;;;;5012822;28;20373;-79
2021/03/09 04:46:17;;;;;;;;;;;3.80;56.20;;;;;;5004526;28;19929;-77
2021/03/09 04:48:44;;;;;;;;;;;3.70;56.20;;;;;;5011061;28;19936;-77
2021/03/09 04:51:11;;;;;;;;;;;3.70;56.30;;;;;;5013194;28;19931;-77
2021/03/09 04:53:39;;;;;;;;;;;3.70;56.30;;;;;;5012921;28;20012;-77
2021/03/09 04:56:05;;;;;;;;;;;3.70;56.30;;;;;;5012638;28;19925;-78
2021/03/09 04:58:32;;;;;;;;;;;3.70;56.40;;;;;;5013218;28;19925;-78
2021/03/09 05:00:58;;;;;;;;;;;3.70;56.40;;;;;;5012229;28;19968;-78
2021/03/09 05:03:24;;;;;;;;;;;3.70;56.40;;;;;;5012959;28;20377;-77
2021/03/09 05:05:52;;;;;;;;;;;3.70;56.40;;;;;;5012678;28;19944;-78
2021/03/09 05:08:18;;;;;;;;;;;3.70;57.00;;;;;;5012851;28;19921;-77
2021/03/09 05:10:44;;;;;;;;;;;3.70;56.40;;;;;;5009388;28;19976;-78
2021/03/09 05:13:11;;;;;;;;;;;3.70;56.50;;;;;;5002167;28;19926;-78
2021/03/09 05:15:37;;;;;;;;;;;3.70;56.50;;;;;;4991734;28;19976;-78
2021/03/09 05:18:04;;;;;;;;;;;3.70;56.50;;;;;;4994507;28;20341;-78
2021/03/09 05:20:30;;;;;;;;;;;3.70;57.00;;;;;;5006474;28;19921;-78
2021/03/09 05:22:57;;;;;;;;;;;3.70;56.40;;;;;;5012361;28;20254;-78
2021/03/09 05:25:24;;;;;;;;;;;3.70;56.40;;;;;;5012626;28;20281;-77
2021/03/09 05:27:50;;;;;;;;;;;3.70;56.40;;;;;;5012232;28;19969;-78
2021/03/09 05:30:18;;;;;;;;;;;3.70;56.40;;;;;;5012465;28;19929;-77
2021/03/09 05:32:44;;;;;;;;;;;3.70;56.50;;;;;;5012245;28;19940;-78
2021/03/09 05:35:12;;;;;;;;;;;3.60;56.40;;;;;;5012313;28;19928;-78
2021/03/09 05:37:39;;;;;;;;;;;3.60;56.40;;;;;;5012395;28;19922;-77
2021/03/09 05:40:08;;;;;;;;;;;3.70;56.30;;;;;;5012348;28;21279;-77
2021/03/09 05:42:34;;;;;;;;;;;3.70;56.30;;;;;;5003172;28;19944;-78
2021/03/09 05:45:01;;;;;;;;;;;3.70;56.30;;;;;;4995845;28;19926;-78
2021/03/09 05:47:27;;;;;;;;;;;3.70;56.20;;;;;;5005869;28;19948;-78
2021/03/09 05:49:53;;;;;;;;;;;3.70;56.20;;;;;;5015711;28;19968;-77
2021/03/09 05:52:20;;;;;;;;;;;3.60;56.30;;;;;;5015638;28;19993;-77
2021/03/09 05:54:47;;;;;;;;;;;3.60;56.40;;;;;;5015608;28;20404;-77
2021/03/09 05:57:15;;;;;;;;;;;3.60;56.40;;;;;;5015566;28;19929;-77
2021/03/09 05:59:42;;;;;;;;;;;3.60;56.50;;;;;;5015542;28;19921;-76
2021/03/09 06:02:08;;;;;;;;;;;3.60;56.60;;;;;;5015378;28;19922;-76
2021/03/09 06:04:34;;;;;;;;;;;3.60;56.60;;;;;;5015561;28;20289;-75
2021/03/09 06:07:01;;;;;;;;;;;3.60;56.70;;;;;;5015745;28;19928;-77
2021/03/09 06:09:38;;;;;;;;;;;3.60;57.30;;;;;;5013773;28;19960;-77
2021/03/09 06:12:09;;;;;;;;;;;3.60;56.80;;;;;;5014178;28;19925;-77
2021/03/09 06:14:38;;;;;;;;;;;3.70;56.80;;;;;;5014887;28;20259;-77
2021/03/09 06:17:04;;;;;;;;;;;3.70;56.80;;;;;;5015266;28;19928;-77
2021/03/09 06:19:40;;;;;;;;;;;3.80;56.80;;;;;;5015030;28;19999;-79
2021/03/09 06:22:06;;;;;;;;;;;3.80;56.70;;;;;;5015202;28;20301;-77
2021/03/09 06:24:33;;;;;;;;;;;3.80;56.60;;;;;;5014801;28;19922;-77
2021/03/09 06:26:59;;;;;;;;;;;3.80;56.70;;;;;;5015043;28;19923;-77
2021/03/09 06:29:25;;;;;;;;;;;3.80;56.80;;;;;;5015297;28;19921;-77
2021/03/09 06:32:10;;;;;;;;;;;3.80;56.80;;;;;;5014792;28;19921;-77
2021/03/09 06:34:37;;;;;;;;;;;3.90;56.90;;;;;;5014600;28;19922;-77
2021/03/09 06:37:08;;;;;;;;;;;3.90;56.90;;;;;;5013596;28;19921;-78
2021/03/09 06:39:46;;;;;;;;;;;3.90;56.80;;;;;;5015042;28;19926;-77
2021/03/09 06:42:12;;;;;;;;;;;4.00;56.90;;;;;;5014183;28;19929;-77
2021/03/09 06:44:39;;;;;;;;;;;4.00;56.80;;;;;;5013949;28;19944;-76
2021/03/09 06:47:06;;;;;;;;;;;4.10;56.80;;;;;;5014213;28;19921;-76
2021/03/09 06:49:47;;;;;;;;;;;4.10;56.80;;;;;;5014664;28;19921;-76
2021/03/09 06:52:14;;;;;;;;;;;4.10;56.90;;;;;;5014359;28;19921;-76
2021/03/09 06:54:44;;;;;;;;;;;4.10;56.90;;;;;;5014435;28;19921;-75
2021/03/09 06:57:11;;;;;;;;;;;4.20;56.90;;;;;;5014583;28;19922;-75
2021/03/09 06:59:37;;;;;;;;;;;4.30;56.90;;;;;;5014229;28;20289;-76
2021/03/09 07:02:04;;;;;;;;;;;4.40;56.90;;;;;;5013404;28;20361;-75
2021/03/09 07:04:30;;;;;;;;;;;4.50;56.80;;;;;;5013387;28;19930;-75
2021/03/09 07:06:57;;;;;;;;;;;4.50;56.90;;;;;;5014532;28;19922;-75
2021/03/09 07:09:24;;;;;;;;;;;4.60;56.80;;;;;;5014215;28;19921;-75
2021/03/09 07:11:51;;;;;;;;;;;4.70;56.80;;;;;;5006877;28;20370;-74
2021/03/09 07:14:18;;;;;;;;;;;4.70;56.80;;;;;;5013237;28;19929;-75
2021/03/09 07:16:47;;;;;;;;;;;4.70;56.80;;;;;;5014558;28;19944;-75
2021/03/09 07:19:14;;;;;;;;;;;4.80;56.80;;;;;;5013334;28;19930;-75
2021/03/09 07:21:43;;;;;;;;;;;4.90;56.70;;;;;;5013999;28;19925;-75
2021/03/09 07:24:10;;;;;;;;;;;5.00;56.70;;;;;;5013853;28;19980;-75
2021/03/09 07:26:38;;;;;;;;;;;5.00;56.70;;;;;;5013156;28;19921;-75
2021/03/09 07:29:07;;;;;;;;;;;5.10;56.80;;;;;;5011842;28;19967;-76
2021/03/09 07:31:35;;;;;;;;;;;5.20;56.70;;;;;;5013710;28;19928;-76
2021/03/09 07:34:02;;;;;;;;;;;5.30;56.50;;;;;;5013482;28;19925;-76
2021/03/09 07:36:28;;;;;;;;;;;5.40;56.40;;;;;;5013847;28;19921;-76
2021/03/09 07:38:56;;;;;;;;;;;5.60;56.40;;;;;;5013685;28;19925;-76
2021/03/09 07:41:22;;;;;;;;;;;5.80;56.30;;;;;;5012980;28;20373;-75
2021/03/09 07:43:50;;;;;;;;;;;5.90;55.70;;;;;;5013444;28;19921;-75
2021/03/09 07:46:16;;;;;;;;;;;6.00;55.60;;;;;;5013327;28;19921;-75
2021/03/09 07:48:43;;;;;;;;;;;6.10;55.40;;;;;;5014000;28;19922;-75
2021/03/09 07:51:16;;;;;;;;;;;6.10;55.60;;;;;;5012775;28;20011;-78
2021/03/09 07:54:07;;;;;;;;;;;6.20;55.70;;;;;;5013560;28;19959;-76
2021/03/09 07:56:34;;;;;;;;;;;6.30;55.40;;;;;;5010720;28;19925;-77
2021/03/09 07:59:10;;;;;;;;;;;6.40;55.30;;;;;;5013814;28;19929;-78
2021/03/09 08:01:46;;;;;;;;;;;6.50;55.20;;;;;;5012925;28;20016;-77
2021/03/09 08:04:13;;;;;;;;;;;6.60;54.90;;;;;;5012476;28;19979;-77
2021/03/09 08:06:43;;;;;;;;;;;6.60;54.70;;;;;;5012112;28;19928;-76
2021/03/09 08:09:24;;;;;;;;;;;6.60;54.90;;;;;;5013381;28;20448;-76
2021/03/09 08:11:50;;;;;;;;;;;6.60;54.90;;;;;;5011892;28;19929;-76
2021/03/09 08:14:24;;;;;;;;;;;6.70;54.90;;;;;;5013311;28;20366;-76
2021/03/09 08:16:50;;;;;;;;;;;6.80;54.60;;;;;;5013179;28;19922;-76
2021/03/09 08:19:35;;;;;;;;;;;6.80;54.80;;;;;;5012884;28;19964;-76
2021/03/09 08:22:01;;;;;;;;;;;6.80;55.00;;;;;;5013298;28;20293;-76
2021/03/09 08:24:46;;;;;;;;;;;6.90;55.00;;;;;;5011356;28;19929;-76
2021/03/09 08:27:27;;;;;;;;;;;7.00;55.00;;;;;;5012762;28;20383;-76
2021/03/09 08:29:54;;;;;;;;;;;7.10;54.90;;;;;;5004282;28;21012;-77
2021/03/09 08:32:28;;;;;;;;;;;7.30;55.10;;;;;;5013347;28;19933;-75
2021/03/09 08:35:12;;;;;;;;;;;7.40;54.80;;;;;;5012211;28;19925;-75
2021/03/09 08:37:39;;;;;;;;;;;7.50;54.50;;;;;;5003033;28;19921;-75
2021/03/09 08:40:06;;;;;;;;;;;7.60;54.60;;;;;;5013159;28;19928;-76
2021/03/09 08:42:47;;;;;;;;;;;7.70;54.60;;;;;;5004811;28;20293;-76
2021/03/09 08:45:33;;;;;;;;;;;7.90;54.40;;;;;;5012451;28;20328;-76
2021/03/09 08:47:59;;;;;;;;;;;8.00;54.20;;;;;;5011852;28;20397;-76
2021/03/09 08:50:38;;;;;;;;;;;8.10;53.90;;;;;;5011191;28;19967;-76
2021/03/09 08:53:05;;;;;;;;;;;8.20;53.90;;;;;;5011965;28;19929;-77
2021/03/09 08:55:31;;;;;;;;;;;8.20;53.50;;;;;;5013093;28;20320;-76
2021/03/09 08:57:57;;;;;;;;;;;8.30;53.30;;;;;;5012437;28;19921;-76
2021/03/09 09:00:24;;;;;;;;;;;8.30;53.20;;;;;;5012946;28;19921;-76
2021/03/09 09:02:51;;;;;;;;;;;8.40;53.10;;;;;;5012512;28;19929;-76
2021/03/09 09:05:17;;;;;;;;;;;8.50;52.90;;;;;;5012386;28;19922;-77
2021/03/09 09:07:44;;;;;;;;;;;8.60;52.90;;;;;;5012493;28;19925;-76
2021/03/09 09:10:12;;;;;;;;;;;8.60;52.40;;;;;;5013064;28;19960;-76
2021/03/09 09:12:39;;;;;;;;;;;8.70;52.20;;;;;;5012526;28;19922;-76
2021/03/09 09:15:10;;;;;;;;;;;8.70;52.10;;;;;;5012744;28;20004;-77
2021/03/09 09:17:37;;;;;;;;;;;8.80;52.20;;;;;;5010628;28;19921;-76
2021/03/09 09:20:05;;;;;;;;;;;8.90;52.20;;;;;;5015760;28;19928;-77
2021/03/09 09:22:32;;;;;;;;;;;8.90;51.70;;;;;;5015681;28;19988;-77
2021/03/09 09:24:59;;;;;;;;;;;8.90;51.60;;;;;;5016288;28;19921;-75
2021/03/09 09:27:25;;;;;;;;;;;9.00;51.60;;;;;;5015993;28;20401;-77
2021/03/09 09:29:53;;;;;;;;;;;9.00;51.50;;;;;;5016227;28;19925;-77
2021/03/09 09:32:19;;;;;;;;;;;9.10;51.40;;;;;;5016187;28;20389;-75
2021/03/09 09:34:46;;;;;;;;;;;9.10;51.30;;;;;;5016145;28;19922;-76
2021/03/09 09:37:14;;;;;;;;;;;9.20;51.00;;;;;;5016528;28;20016;-77
2021/03/09 09:39:40;;;;;;;;;;;9.20;51.10;;;;;;5016575;28;19929;-76
2021/03/09 09:42:16;;;;;;;;;;;9.20;51.00;;;;;;5015879;28;20003;-75
2021/03/09 09:44:43;;;;;;;;;;;9.20;51.00;;;;;;5014411;28;19921;-76
2021/03/09 09:47:10;;;;;;;;;;;9.30;51.60;;;;;;5015827;28;20278;-76
2021/03/09 09:49:37;;;;;;;;;;;9.40;51.10;;;;;;5015663;28;20366;-74
2021/03/09 09:52:10;;;;;;;;;;;9.50;50.70;;;;;;5015859;28;20007;-76
2021/03/09 09:54:37;;;;;;;;;;;9.50;50.50;;;;;;4996366;28;19922;-76
2021/03/09 09:57:07;;;;;;;;;;;9.60;50.70;;;;;;5013237;28;19921;-76
2021/03/09 09:59:33;;;;;;;;;;;9.70;50.70;;;;;;5016032;28;19921;-77
2021/03/09 10:02:00;;;;;;;;;;;9.80;50.50;;;;;;5008075;28;19928;-77
2021/03/09 10:04:33;;;;;;;;;;;9.90;50.10;;;;;;5013940;28;19930;-75
2021/03/09 10:06:59;;;;;;;;;;;10.00;49.40;;;;;;5014812;28;19921;-75
2021/03/09 10:09:26;;;;;;;;;;;10.00;48.80;;;;;;5015176;28;20349;-76
2021/03/09 10:11:54;;;;;;;;;;;10.10;48.90;;;;;;5013093;28;19921;-76
2021/03/09 10:14:21;;;;;;;;;;;10.20;48.20;;;;;;5015140;28;19976;-76
2021/03/09 10:16:47;;;;;;;;;;;10.20;48.20;;;;;;5014401;28;19921;-76
2021/03/09 10:19:16;;;;;;;;;;;10.40;48.30;;;;;;5014585;28;19921;-75
2021/03/09 10:21:43;;;;;;;;;;;10.50;48.30;;;;;;5014972;28;19968;-76
2021/03/09 10:24:10;;;;;;;;;;;10.60;48.00;;;;;;5014948;28;19925;-76
2021/03/09 10:26:37;;;;;;;;;;;10.80;47.80;;;;;;5014015;28;20274;-76
2021/03/09 10:29:05;;;;;;;;;;;10.90;47.30;;;;;;5014836;28;19928;-76
2021/03/09 10:31:39;;;;;;;;;;;11.00;47.10;;;;;;5014386;28;19928;-75
2021/03/09 10:34:06;;;;;;;;;;;11.10;46.80;;;;;;5014719;28;19921;-76
2021/03/09 10:36:46;;;;;;;;;;;11.10;46.40;;;;;;5014595;28;20009;-76
2021/03/09 10:39:13;;;;;;;;;;;11.20;46.30;;;;;;5013002;28;19971;-76
2021/03/09 10:41:39;;;;;;;;;;;11.30;46.00;;;;;;5013977;28;19933;-76
2021/03/09 10:44:06;;;;;;;;;;;11.40;46.00;;;;;;5014072;28;19921;-76
2021/03/09 10:46:34;;;;;;;;;;;11.50;45.60;;;;;;5014463;28;19921;-75
2021/03/09 10:49:00;;;;;;;;;;;11.60;45.20;;;;;;5014454;28;19922;-75
2021/03/09 10:51:27;;;;;;;;;;;11.80;45.00;;;;;;5014201;28;19973;-76
2021/03/09 10:53:53;;;;;;;;;;;11.90;44.50;;;;;;5014251;28;19928;-73
2021/03/09 10:56:19;;;;;;;;;;;12.00;44.60;;;;;;5014402;28;19925;-73
2021/03/09 10:58:46;;;;;;;;;;;12.10;44.00;;;;;;5014754;28;19922;-73
2021/03/09 11:01:13;;;;;;;;;;;12.20;43.60;;;;;;5014239;28;19921;-74
2021/03/09 11:03:39;;;;;;;;;;;12.30;43.00;;;;;;5014587;28;19928;-75
2021/03/09 11:06:05;;;;;;;;;;;12.30;43.20;;;;;;5012708;28;20317;-73
2021/03/09 11:08:32;;;;;;;;;;;12.40;43.10;;;;;;5014712;28;19921;-74
2021/03/09 11:10:58;;;;;;;;;;;12.40;42.40;;;;;;5014237;28;20338;-73
2021/03/09 11:13:24;;;;;;;;;;;12.40;42.40;;;;;;5014428;28;19928;-73
2021/03/09 11:15:50;;;;;;;;;;;12.40;42.30;;;;;;5014210;28;19921;-75
2021/03/09 11:18:18;;;;;;;;;;;12.30;41.80;;;;;;5014263;28;19925;-74
2021/03/09 11:20:44;;;;;;;;;;;12.30;41.60;;;;;;5013852;28;19921;-74
2021/03/09 11:23:10;;;;;;;;;;;12.30;41.70;;;;;;5014043;28;19952;-74
2021/03/09 11:25:37;;;;;;;;;;;12.30;42.30;;;;;;5014160;28;19944;-75
2021/03/09 11:28:03;;;;;;;;;;;12.30;40.90;;;;;;5013953;28;20428;-75
2021/03/09 11:30:30;;;;;;;;;;;12.40;40.70;;;;;;5014382;28;19922;-74
2021/03/09 11:32:56;;;;;;;;;;;12.50;41.10;;;;;;5012256;28;19925;-74
2021/03/09 11:35:24;;;;;;;;;;;12.70;41.30;;;;;;5013244;28;19976;-74
2021/03/09 11:37:50;;;;;;;;;;;13.10;40.90;;;;;;5013840;28;19937;-75
2021/03/09 11:40:16;;;;;;;;;;;13.50;40.40;;;;;;5014288;28;19921;-75
2021/03/09 11:42:43;;;;;;;;;;;13.80;39.70;;;;;;5012698;28;19921;-74
2021/03/09 11:45:10;;;;;;;;;;;13.90;37.70;;;;;;5012924;28;19925;-74
2021/03/09 11:47:36;;;;;;;;;;;14.00;38.00;;;;;;5013638;28;20333;-74
2021/03/09 11:50:03;;;;;;;;;;;14.40;37.20;;;;;;5013940;28;19921;-74
2021/03/09 11:52:30;;;;;;;;;;;14.50;37.10;;;;;;5002942;28;19980;-74
2021/03/09 11:54:58;;;;;;;;;;;14.30;37.40;;;;;;5003167;28;19922;-74
2021/03/09 11:57:25;;;;;;;;;;;14.10;37.50;;;;;;5005727;28;19921;-74
2021/03/09 11:59:51;;;;;;;;;;;13.70;38.00;;;;;;4994817;28;19925;-73
2021/03/09 12:02:17;;;;;;;;;;;13.50;38.20;;;;;;5013766;28;19926;-74
2021/03/09 12:04:43;;;;;;;;;;;13.40;38.30;;;;;;5013514;28;19921;-73
2021/03/09 12:07:10;;;;;;;;;;;13.30;38.30;;;;;;5013544;28;20377;-74
2021/03/09 12:09:37;;;;;;;;;;;13.30;38.60;;;;;;5013881;28;19921;-72
2021/03/09 12:12:04;;;;;;;;;;;13.20;38.70;;;;;;5013297;28;20018;-73
2021/03/09 12:14:30;;;;;;;;;;;13.00;37.50;;;;;;5012711;28;19936;-72
2021/03/09 12:16:57;;;;;;;;;;;12.90;37.90;;;;;;5013013;28;19925;-73
2021/03/09 12:19:23;;;;;;;;;;;12.90;38.40;;;;;;5012996;28;20016;-73
2021/03/09 12:21:49;;;;;;;;;;;13.00;38.20;;;;;;5013507;28;19931;-72
2021/03/09 12:24:16;;;;;;;;;;;13.10;38.30;;;;;;5013223;28;19921;-72
2021/03/09 12:26:43;;;;;;;;;;;13.10;37.90;;;;;;5011350;28;20313;-73
2021/03/09 12:29:09;;;;;;;;;;;13.10;38.10;;;;;;5013175;28;19948;-74
2021/03/09 12:31:36;;;;;;;;;;;13.10;38.00;;;;;;5013432;28;19932;-72
2021/03/09 12:34:02;;;;;;;;;;;13.10;38.00;;;;;;5013429;28;20273;-74
2021/03/09 12:36:29;;;;;;;;;;;13.10;38.10;;;;;;5012928;28;19928;-72
2021/03/09 12:38:55;;;;;;;;;;;13.10;37.60;;;;;;5012978;28;19933;-73
2021/03/09 12:41:21;;;;;;;;;;;13.10;37.60;;;;;;5013351;28;19921;-73
2021/03/09 12:43:49;;;;;;;;;;;13.00;37.40;;;;;;5013068;28;20362;-73
2021/03/09 12:46:15;;;;;;;;;;;12.90;37.80;;;;;;4993423;28;19926;-73
2021/03/09 12:48:41;;;;;;;;;;;12.70;38.00;;;;;;5011991;28;20333;-74
2021/03/09 12:51:07;;;;;;;;;;;12.70;38.10;;;;;;5012970;28;19921;-74
2021/03/09 12:53:34;;;;;;;;;;;12.60;38.20;;;;;;5013782;28;20290;-73
2021/03/09 12:56:00;;;;;;;;;;;12.70;38.40;;;;;;5016679;28;19932;-73
2021/03/09 12:58:26;;;;;;;;;;;12.70;38.40;;;;;;5016777;28;19921;-73
2021/03/09 13:00:53;;;;;;;;;;;12.80;38.30;;;;;;5016739;28;20282;-73
2021/03/09 13:03:20;;;;;;;;;;;12.80;38.30;;;;;;5016999;28;20382;-74
2021/03/09 13:05:46;;;;;;;;;;;12.90;38.00;;;;;;5016666;28;19922;-73
2021/03/09 13:08:12;;;;;;;;;;;12.80;37.90;;;;;;5016759;28;19922;-73
2021/03/09 13:10:39;;;;;;;;;;;12.70;38.00;;;;;;5014738;28;20025;-73
2021/03/09 13:13:05;;;;;;;;;;;12.70;38.00;;;;;;4997203;28;19922;-73
2021/03/09 13:15:31;;;;;;;;;;;12.60;37.80;;;;;;5001438;28;19945;-73
2021/03/09 13:17:58;;;;;;;;;;;12.60;37.70;;;;;;5016643;28;19972;-73
2021/03/09 13:20:25;;;;;;;;;;;12.60;37.70;;;;;;5014736;28;19921;-73
2021/03/09 13:22:51;;;;;;;;;;;12.50;37.90;;;;;;5016572;28;19925;-73
2021/03/09 13:25:17;;;;;;;;;;;12.50;37.90;;;;;;5016213;28;19967;-73
2021/03/09 13:27:43;;;;;;;;;;;12.60;38.10;;;;;;5016426;28;19925;-73
2021/03/09 13:30:11;;;;;;;;;;;12.60;37.90;;;;;;5016246;28;20266;-73
2021/03/09 13:32:38;;;;;;;;;;;12.60;37.70;;;;;;5016142;28;19921;-73
2021/03/09 13:35:05;;;;;;;;;;;12.50;37.70;;;;;;5016315;28;19926;-73
2021/03/09 13:37:32;;;;;;;;;;;12.50;37.80;;;;;;5016169;28;19929;-73
2021/03/09 13:39:58;;;;;;;;;;;12.50;37.80;;;;;;5016145;28;19926;-73
2021/03/09 13:42:24;;;;;;;;;;;12.50;37.60;;;;;;5015825;28;19925;-73
2021/03/09 13:44:50;;;;;;;;;;;12.50;37.80;;;;;;5016311;28;20277;-73
2021/03/09 13:47:17;;;;;;;;;;;12.40;38.00;;;;;;5014157;28;19921;-73
2021/03/09 13:49:43;;;;;;;;;;;12.40;38.30;;;;;;5015792;28;19921;-73
2021/03/09 13:52:11;;;;;;;;;;;12.30;38.40;;;;;;5015771;28;20393;-74
2021/03/09 13:54:37;;;;;;;;;;;12.30;38.80;;;;;;5015882;28;20370;-73
2021/03/09 13:57:04;;;;;;;;;;;12.40;38.90;;;;;;5015901;28;19944;-73
2021/03/09 13:59:30;;;;;;;;;;;12.40;38.70;;;;;;5015366;28;20460;-73
2021/03/09 14:01:56;;;;;;;;;;;12.40;38.60;;;;;;5015353;28;19937;-73
2021/03/09 14:04:23;;;;;;;;;;;12.20;38.80;;;;;;5014755;28;19921;-73
2021/03/09 14:06:49;;;;;;;;;;;12.20;39.20;;;;;;5015641;28;19932;-73
2021/03/09 14:09:16;;;;;;;;;;;12.10;39.90;;;;;;5015897;28;20420;-73
2021/03/09 14:11:45;;;;;;;;;;;12.20;39.60;;;;;;5015151;28;20267;-73
2021/03/09 14:14:12;;;;;;;;;;;12.20;39.50;;;;;;5014199;28;19921;-73
2021/03/09 14:16:38;;;;;;;;;;;12.20;39.50;;;;;;5015262;28;19926;-73
2021/03/09 14:19:05;;;;;;;;;;;12.30;39.50;;;;;;5015678;28;19968;-73
2021/03/09 14:21:32;;;;;;;;;;;12.30;39.50;;;;;;5015159;28;20012;-73
2021/03/09 14:23:58;;;;;;;;;;;12.10;39.50;;;;;;5015364;28;19921;-73
2021/03/09 14:26:25;;;;;;;;;;;11.90;40.10;;;;;;5015306;28;20395;-73
2021/03/09 14:28:51;;;;;;;;;;;11.90;40.80;;;;;;5015251;28;19932;-73